createdAt,value
2023-01-05T00:02:00.770Z,30.40
2023-01-05T00:04:27.337Z,11.30
2023-01-05T00:06:53.985Z,22.13
2023-01-05T00:09:20.525Z,18.20
2023-01-05T00:12:05.914Z,18.30
2023-01-05T00:15:12.541Z,28.70
2023-01-05T00:17:57.725Z,11.10
2023-01-05T00:20:43.210Z,29.17
2023-01-05T00:23:09.945Z,14.83
2023-01-05T00:25:37.870Z,32.80
2023-01-05T00:28:04.871Z,22.80
2023-01-05T00:30:36.243Z,21.87
2023-01-05T00:33:02.787Z,14.27
2023-01-05T00:35:31.264Z,17.77
2023-01-05T00:37:57.779Z,22.10
2023-01-05T00:40:24.498Z,21.80
2023-01-05T00:42:51.067Z,36.53
2023-01-05T00:45:18.990Z,26.33
2023-01-05T00:47:45.995Z,18.37
2023-01-05T00:50:14.039Z,18.33
2023-01-05T00:52:40.588Z,40.30
2023-01-05T00:55:07.428Z,27.10
2023-01-05T00:57:33.970Z,24.13
2023-01-05T01:00:02.404Z,21.37
2023-01-05T01:02:31.254Z,19.30
2023-01-05T01:04:57.855Z,30.90
2023-01-05T01:07:24.297Z,32.17
2023-01-05T01:09:50.868Z,24.83
2023-01-05T01:12:17.432Z,31.23
2023-01-05T01:14:46.421Z,22.60
2023-01-05T01:17:14.741Z,25.80
2023-01-05T01:19:41.233Z,25.63
2023-01-05T01:22:07.696Z,18.00
2023-01-05T01:24:34.224Z,30.07
2023-01-05T01:27:00.687Z,33.57
2023-01-05T01:29:27.341Z,23.17
2023-01-05T01:31:54.101Z,21.50
2023-01-05T01:34:21.030Z,26.03
2023-01-05T01:36:47.897Z,15.60
2023-01-05T01:39:16.643Z,17.43
2023-01-05T01:41:47.123Z,26.03
2023-01-05T01:44:32.484Z,38.50
2023-01-05T01:46:59.040Z,20.63
2023-01-05T01:49:25.563Z,34.83
2023-01-05T01:51:52.718Z,31.63
2023-01-05T01:54:19.391Z,28.40
2023-01-05T01:56:47.541Z,38.40
2023-01-05T01:59:14.411Z,26.10
2023-01-05T02:01:41.043Z,32.47
2023-01-05T02:04:07.998Z,26.90
2023-01-05T02:06:34.649Z,29.83
2023-01-05T02:09:01.370Z,29.07
2023-01-05T02:11:31.086Z,45.00
2023-01-05T02:14:16.642Z,27.83
2023-01-05T02:16:47.573Z,28.37
2023-01-05T02:19:38.850Z,33.97
2023-01-05T02:22:05.332Z,28.07
2023-01-05T02:24:34.593Z,24.83
2023-01-05T02:27:04.225Z,31.13
2023-01-05T02:29:30.911Z,35.33
2023-01-05T02:32:19.237Z,40.70
2023-01-05T02:34:59.687Z,38.30
2023-01-05T02:37:32.974Z,32.00
2023-01-05T02:40:03.073Z,28.27
2023-01-05T02:42:35.334Z,32.23
2023-01-05T02:45:02.583Z,38.10
2023-01-05T02:47:29.187Z,46.63
2023-01-05T02:50:04.563Z,33.43
2023-01-05T02:52:38.015Z,24.47
2023-01-05T02:55:07.752Z,33.00
2023-01-05T02:57:47.650Z,27.50
2023-01-05T03:00:21.594Z,22.13
2023-01-05T03:02:51.581Z,31.60
2023-01-05T03:05:24.604Z,30.40
2023-01-05T03:07:51.639Z,34.67
2023-01-05T03:10:37.082Z,28.90
2023-01-05T03:13:25.250Z,24.30
2023-01-05T03:15:58.642Z,28.80
2023-01-05T03:18:26.318Z,31.50
2023-01-05T03:20:54.168Z,27.63
2023-01-05T03:23:40.106Z,19.63
2023-01-05T03:26:26.503Z,30.20
2023-01-05T03:29:14.633Z,34.60
2023-01-05T03:32:04.636Z,40.73
2023-01-05T03:35:02.649Z,34.60
2023-01-05T03:37:36.132Z,29.47
2023-01-05T03:40:04.826Z,26.37
2023-01-05T03:42:34.862Z,26.60
2023-01-05T03:45:03.055Z,24.27
2023-01-05T03:47:31.300Z,26.97
2023-01-05T03:49:58.573Z,35.97
2023-01-05T03:52:25.266Z,23.57
2023-01-05T03:54:51.919Z,20.73
2023-01-05T03:57:18.622Z,20.63
2023-01-05T03:59:45.397Z,47.60
2023-01-05T04:02:12.031Z,34.13
2023-01-05T04:04:38.732Z,28.43
2023-01-05T04:07:08.303Z,36.33
2023-01-05T04:09:35.708Z,31.00
2023-01-05T04:12:03.144Z,25.97
2023-01-05T04:14:33.665Z,21.63
2023-01-05T04:17:00.400Z,29.87
2023-01-05T04:19:27.421Z,55.50
2023-01-05T04:21:55.489Z,22.70
2023-01-05T04:24:23.524Z,35.07
2023-01-05T04:26:50.124Z,22.93
2023-01-05T04:29:19.074Z,33.90
2023-01-05T04:31:48.719Z,22.10
2023-01-05T04:34:15.293Z,36.53
2023-01-05T04:36:43.367Z,35.43
2023-01-05T04:39:15.368Z,32.43
2023-01-05T04:41:42.266Z,22.23
2023-01-05T04:44:09.345Z,32.03
2023-01-05T04:46:36.088Z,34.70
2023-01-05T04:49:03.648Z,26.87
2023-01-05T04:51:30.307Z,36.00
2023-01-05T04:53:57.671Z,27.10
2023-01-05T04:56:24.851Z,32.77
2023-01-05T04:58:51.751Z,30.50
2023-01-05T05:01:18.749Z,56.97
2023-01-05T05:03:50.312Z,33.53
2023-01-05T05:06:19.436Z,22.20
2023-01-05T05:08:48.112Z,36.60
2023-01-05T05:11:15.252Z,45.03
2023-01-05T05:13:45.534Z,32.50
2023-01-05T05:16:13.234Z,25.30
2023-01-05T05:18:41.279Z,27.20
2023-01-05T05:21:11.356Z,38.00
2023-01-05T05:23:39.559Z,25.60
2023-01-05T05:26:06.369Z,32.70
2023-01-05T05:28:33.788Z,41.93
2023-01-05T05:31:01.012Z,37.63
2023-01-05T05:33:27.749Z,30.70
2023-01-05T05:35:54.326Z,36.97
2023-01-05T05:38:20.993Z,42.47
2023-01-05T05:40:51.140Z,32.70
2023-01-05T05:43:17.802Z,40.03
2023-01-05T05:45:50.017Z,34.07
2023-01-05T05:48:17.639Z,24.70
2023-01-05T05:50:44.667Z,37.77
2023-01-05T05:53:11.226Z,44.13
2023-01-05T05:55:37.694Z,32.40
2023-01-05T05:58:04.444Z,45.60
2023-01-05T06:00:30.943Z,24.40
2023-01-05T06:02:57.541Z,33.97
2023-01-05T06:05:24.225Z,31.60
2023-01-05T06:07:50.939Z,25.23
2023-01-05T06:10:17.465Z,46.93
2023-01-05T06:12:44.327Z,34.77
2023-01-05T06:15:11.152Z,48.97
2023-01-05T06:17:37.699Z,29.73
2023-01-05T06:20:04.750Z,34.37
2023-01-05T06:22:31.216Z,51.20
2023-01-05T06:24:57.771Z,32.20
2023-01-05T06:27:24.365Z,41.57
2023-01-05T06:29:50.832Z,37.23
2023-01-05T06:32:17.311Z,44.20
2023-01-05T06:34:43.891Z,37.43
2023-01-05T06:37:10.509Z,32.73
2023-01-05T06:39:37.013Z,33.03
2023-01-05T06:42:03.740Z,38.17
2023-01-05T06:44:30.325Z,40.83
2023-01-05T06:46:56.768Z,42.20
2023-01-05T06:49:23.483Z,39.07
2023-01-05T06:51:49.918Z,40.07
2023-01-05T06:54:16.473Z,50.50
2023-01-05T06:56:44.222Z,58.47
2023-01-05T06:59:11.599Z,46.43
2023-01-05T07:01:38.433Z,29.10
2023-01-05T07:04:05.201Z,56.10
2023-01-05T07:06:31.947Z,32.33
2023-01-05T07:08:58.614Z,42.80
2023-01-05T07:11:25.230Z,37.63
2023-01-05T07:13:51.747Z,38.20
2023-01-05T07:16:18.716Z,41.93
2023-01-05T07:18:45.448Z,41.53
2023-01-05T07:21:11.912Z,41.07
2023-01-05T07:23:38.376Z,27.23
2023-01-05T07:26:05.728Z,28.43
2023-01-05T07:28:33.476Z,42.03
2023-01-05T07:31:00.138Z,49.43
2023-01-05T07:33:26.695Z,49.40
2023-01-05T07:35:53.129Z,35.10
2023-01-05T07:38:19.920Z,37.43
2023-01-05T07:40:46.604Z,41.43
2023-01-05T07:43:13.109Z,31.80
2023-01-05T07:45:39.903Z,39.57
2023-01-05T07:48:06.527Z,42.27
2023-01-05T07:50:33.254Z,36.70
2023-01-05T07:52:59.904Z,52.00
2023-01-05T07:55:26.421Z,36.57
2023-01-05T07:57:52.976Z,43.17
2023-01-05T08:00:19.680Z,35.27
2023-01-05T08:02:46.352Z,37.07
2023-01-05T08:05:12.936Z,35.70
2023-01-05T08:07:39.528Z,55.10
2023-01-05T08:10:24.874Z,54.10
2023-01-05T08:13:10.210Z,32.93
2023-01-05T08:15:36.704Z,42.60
2023-01-05T08:18:03.238Z,42.87
2023-01-05T08:20:29.857Z,51.13
2023-01-05T08:22:57.040Z,38.63
2023-01-05T08:25:23.586Z,35.67
2023-01-05T08:27:50.210Z,40.23
2023-01-05T08:30:16.853Z,29.97
2023-01-05T08:32:43.487Z,50.67
2023-01-05T08:35:10.078Z,59.10
2023-01-05T08:37:36.725Z,40.17
2023-01-05T08:40:03.528Z,49.43
2023-01-05T08:42:30.206Z,35.83
2023-01-05T08:44:56.716Z,40.57
2023-01-05T08:47:28.040Z,50.17
2023-01-05T08:49:55.385Z,50.80
2023-01-05T08:52:23.408Z,43.37
2023-01-05T08:54:50.410Z,62.00
2023-01-05T08:57:16.931Z,57.37
2023-01-05T08:59:43.427Z,49.83
2023-01-05T09:02:11.656Z,49.83
2023-01-05T09:04:38.345Z,47.43
2023-01-05T09:07:04.948Z,33.77
2023-01-05T09:09:31.468Z,33.77
2023-01-05T09:11:58.011Z,34.17
2023-01-05T09:14:24.547Z,40.93
2023-01-05T09:17:07.174Z,41.13
2023-01-05T09:19:34.503Z,61.57
2023-01-05T09:22:01.122Z,51.67
2023-01-05T09:24:27.688Z,57.27
2023-01-05T09:26:54.451Z,38.87
2023-01-05T09:29:21.071Z,52.13
2023-01-05T09:31:47.786Z,51.70
2023-01-05T09:34:14.392Z,67.30
2023-01-05T09:36:40.905Z,43.93
2023-01-05T09:39:07.752Z,46.97
2023-01-05T09:41:40.399Z,49.07
2023-01-05T09:44:12.428Z,33.37
2023-01-05T09:46:41.439Z,40.03
2023-01-05T09:49:12.880Z,43.43
2023-01-05T09:51:39.616Z,52.40
2023-01-05T09:54:06.251Z,44.53
2023-01-05T09:57:08.069Z,43.10
2023-01-05T09:59:36.019Z,34.37
2023-01-05T10:02:13.419Z,41.50
2023-01-05T10:04:39.989Z,35.53
2023-01-05T10:07:07.499Z,37.73
2023-01-05T10:09:36.202Z,39.57
2023-01-05T10:12:27.724Z,46.17
2023-01-05T10:14:57.350Z,46.40
2023-01-05T10:17:41.224Z,34.60
2023-01-05T10:20:31.712Z,44.77
2023-01-05T10:23:01.393Z,50.37
2023-01-05T10:25:27.803Z,41.43
2023-01-05T10:28:02.466Z,40.07
2023-01-05T10:30:40.466Z,50.03
2023-01-05T10:33:26.651Z,42.50
2023-01-05T10:36:04.262Z,35.33
2023-01-05T10:38:49.639Z,38.33
2023-01-05T10:41:22.294Z,47.17
2023-01-05T10:44:07.777Z,41.47
2023-01-05T10:46:42.654Z,32.90
2023-01-05T10:49:16.449Z,38.50
2023-01-05T10:51:43.416Z,36.07
2023-01-05T10:54:20.469Z,35.13
2023-01-05T10:56:46.996Z,50.30
2023-01-05T10:59:15.388Z,33.03
2023-01-05T11:01:43.513Z,32.03
2023-01-05T11:04:29.353Z,36.63
2023-01-05T11:07:05.817Z,36.30
2023-01-05T11:09:32.379Z,27.90
2023-01-05T11:12:03.089Z,42.13
2023-01-05T11:14:32.679Z,38.00
2023-01-05T11:17:03.756Z,40.60
2023-01-05T11:19:38.110Z,50.73
2023-01-05T11:22:04.634Z,43.63
2023-01-05T11:24:35.281Z,46.80
2023-01-05T11:27:03.238Z,40.63
2023-01-05T11:29:30.523Z,40.23
2023-01-05T11:31:58.706Z,41.13
2023-01-05T11:34:48.030Z,39.43
2023-01-05T11:37:22.970Z,29.13
2023-01-05T11:39:51.315Z,35.27
2023-01-05T11:42:25.303Z,34.97
2023-01-05T11:44:54.184Z,37.17
2023-01-05T11:47:26.364Z,41.93
2023-01-05T11:50:05.345Z,30.40
2023-01-05T11:52:42.835Z,31.97
2023-01-05T11:55:30.499Z,44.40
2023-01-05T11:58:17.787Z,47.33
2023-01-05T12:01:03.154Z,35.23
2023-01-05T12:03:52.845Z,30.53
2023-01-05T12:06:35.312Z,42.20
2023-01-05T12:09:16.392Z,42.27
2023-01-05T12:12:03.243Z,35.50
2023-01-05T12:14:39.085Z,40.60
2023-01-05T12:17:09.988Z,28.53
2023-01-05T12:19:47.733Z,25.27
2023-01-05T12:22:17.480Z,38.90
2023-01-05T12:25:03.138Z,38.73
2023-01-05T12:27:34.787Z,43.07
2023-01-05T12:35:54.113Z,48.77
2023-01-05T12:38:26.766Z,29.90
2023-01-05T12:41:19.051Z,40.37
2023-01-05T12:43:51.695Z,36.07
2023-01-05T12:46:21.325Z,43.93
2023-01-05T12:48:51.100Z,45.53
2023-01-05T12:51:24.723Z,35.13
2023-01-05T12:53:56.481Z,28.87
2023-01-05T12:56:26.101Z,51.60
2023-01-05T12:58:59.839Z,41.30
2023-01-05T13:01:29.234Z,35.57
2023-01-05T13:04:02.823Z,39.00
2023-01-05T13:06:33.741Z,60.93
2023-01-05T13:09:03.655Z,31.83
2023-01-05T13:11:33.067Z,47.10
2023-01-05T13:14:20.186Z,42.70
2023-01-05T13:16:59.613Z,35.30
2023-01-05T13:19:38.376Z,46.97
2023-01-05T13:22:07.039Z,35.73
2023-01-05T13:24:45.080Z,46.07
2023-01-05T13:27:12.656Z,50.17
2023-01-05T13:29:41.698Z,53.63
2023-01-05T13:32:27.218Z,47.80
2023-01-05T13:34:56.805Z,39.33
2023-01-05T13:40:21.504Z,46.77
2023-01-05T13:45:52.845Z,37.57
2023-01-05T13:48:33.834Z,40.80
2023-01-05T13:51:10.543Z,40.30
2023-01-05T13:53:38.432Z,48.37
2023-01-05T13:56:06.389Z,39.40
2023-01-05T13:58:38.812Z,55.63
2023-01-05T14:01:07.208Z,39.70
2023-01-05T14:03:41.467Z,45.50
2023-01-05T14:06:19.824Z,38.73
2023-01-05T14:08:49.892Z,39.43
2023-01-05T14:11:16.602Z,49.77
2023-01-05T14:13:43.169Z,35.67
2023-01-05T14:16:28.745Z,37.80
2023-01-05T14:19:01.834Z,35.43
2023-01-05T14:22:00.185Z,39.90
2023-01-05T14:24:26.763Z,50.27
2023-01-05T14:27:04.294Z,52.60
2023-01-05T14:29:46.570Z,50.83
2023-01-05T14:32:19.388Z,33.57
2023-01-05T14:34:48.237Z,45.80
2023-01-05T14:37:20.897Z,47.33
2023-01-05T14:39:47.913Z,43.87
2023-01-05T14:42:14.446Z,59.70
2023-01-05T14:44:44.207Z,39.80
2023-01-05T14:47:11.309Z,40.27
2023-01-05T14:49:40.469Z,40.03
2023-01-05T14:52:14.306Z,45.57
2023-01-05T14:54:40.844Z,58.40
2023-01-05T14:57:25.724Z,42.87
2023-01-05T14:59:57.411Z,56.20
2023-01-05T15:02:26.313Z,47.90
2023-01-05T15:04:55.018Z,53.60
2023-01-05T15:07:34.073Z,94.13
2023-01-05T15:10:19.599Z,59.87
2023-01-05T15:13:09.153Z,96.20
2023-01-05T15:15:36.411Z,67.33
2023-01-05T15:21:02.879Z,52.07
2023-01-05T15:23:38.630Z,59.30
2023-01-05T15:26:14.480Z,67.37
2023-01-05T15:29:00.248Z,65.10
2023-01-05T15:31:36.032Z,49.43
2023-01-05T15:34:06.561Z,49.10
2023-01-05T15:36:38.829Z,38.97
2023-01-05T15:39:22.219Z,47.87
2023-01-05T15:41:48.952Z,33.10
2023-01-05T15:44:19.263Z,49.60
2023-01-05T15:46:46.289Z,50.77
2023-01-05T15:49:20.231Z,69.50
2023-01-05T15:51:51.517Z,87.63
2023-01-05T15:54:22.999Z,58.53
2023-01-05T15:56:49.904Z,66.23
2023-01-05T15:59:25.858Z,57.90
2023-01-05T16:01:52.508Z,87.60
2023-01-05T16:04:19.061Z,72.87
2023-01-05T16:06:50.784Z,66.07
2023-01-05T16:09:20.965Z,88.00
2023-01-05T16:11:49.039Z,118.77
2023-01-05T16:14:19.371Z,89.30
2023-01-05T16:16:56.297Z,67.23
2023-01-05T16:19:22.817Z,79.43
2023-01-05T16:21:54.617Z,80.27
2023-01-05T16:24:31.013Z,69.07
2023-01-05T16:26:58.580Z,90.87
2023-01-05T16:29:32.963Z,73.37
2023-01-05T16:31:59.874Z,70.63
2023-01-05T16:34:29.542Z,45.83
2023-01-05T16:36:59.609Z,54.47
2023-01-05T16:39:31.539Z,68.50
2023-01-05T16:42:24.083Z,60.73
2023-01-05T16:44:55.154Z,63.07
2023-01-05T16:47:52.383Z,60.77
2023-01-05T16:50:19.474Z,86.33
2023-01-05T16:52:53.774Z,59.47
2023-01-05T16:55:27.641Z,66.63
2023-01-05T16:57:54.700Z,81.57
2023-01-05T17:00:24.529Z,53.77
2023-01-05T17:02:52.828Z,54.67
2023-01-05T17:05:21.087Z,77.23
2023-01-05T17:07:49.932Z,83.93
2023-01-05T17:10:19.068Z,99.20
2023-01-05T17:12:48.111Z,118.47
2023-01-05T17:15:18.502Z,119.33
2023-01-05T17:17:45.059Z,97.87
2023-01-05T17:20:12.508Z,97.37
2023-01-05T17:22:39.151Z,82.60
2023-01-05T17:25:09.743Z,80.27
2023-01-05T17:27:37.724Z,85.70
2023-01-05T17:30:11.958Z,82.70
2023-01-05T17:32:38.585Z,97.47
2023-01-05T17:37:33.014Z,98.00
2023-01-05T17:39:59.636Z,84.27
2023-01-05T17:42:44.617Z,90.40
2023-01-05T17:45:12.408Z,113.53
2023-01-05T17:47:39.012Z,91.80
2023-01-05T17:50:06.158Z,70.97
2023-01-05T17:52:32.771Z,106.87
2023-01-05T17:54:59.358Z,118.10
2023-01-05T17:57:26.055Z,78.87
2023-01-05T17:59:52.633Z,88.63
2023-01-05T18:02:19.322Z,81.23
2023-01-05T18:04:45.861Z,91.53
2023-01-05T18:07:12.576Z,79.53
2023-01-05T18:09:39.109Z,76.60
2023-01-05T18:12:05.967Z,85.73
2023-01-05T18:14:32.516Z,91.40
2023-01-05T18:16:59.110Z,74.07
2023-01-05T18:19:27.537Z,66.50
2023-01-05T18:21:54.409Z,51.43
2023-01-05T18:24:21.017Z,34.57
2023-01-05T18:26:52.230Z,28.77
2023-01-05T18:29:20.829Z,27.50
2023-01-05T18:31:47.460Z,21.20
2023-01-05T18:34:14.031Z,28.37
2023-01-05T18:36:40.617Z,22.27
2023-01-05T18:39:07.299Z,29.93
2023-01-05T18:41:33.884Z,23.90
2023-01-05T18:44:02.304Z,26.07
2023-01-05T18:46:29.653Z,29.87
2023-01-05T18:48:56.233Z,35.03
2023-01-05T18:51:22.895Z,31.27
2023-01-05T18:53:49.501Z,34.90
2023-01-05T18:56:16.304Z,34.67
2023-01-05T18:58:43.307Z,30.30
2023-01-05T19:01:11.656Z,33.23
2023-01-05T19:03:38.661Z,35.47
2023-01-05T19:06:06.448Z,24.13
2023-01-05T19:08:33.224Z,34.07
2023-01-05T19:10:59.906Z,27.30
2023-01-05T19:13:26.699Z,34.07
2023-01-05T19:15:53.346Z,21.47
2023-01-05T19:18:20.004Z,30.83
2023-01-05T19:20:54.743Z,38.03
2023-01-05T19:23:21.747Z,32.93
2023-01-05T19:25:48.255Z,26.40
2023-01-05T19:28:14.744Z,23.53
2023-01-05T19:30:41.292Z,26.63
2023-01-05T19:33:07.863Z,21.10
2023-01-05T19:35:34.686Z,21.93
2023-01-05T19:38:02.620Z,22.03
2023-01-05T19:40:29.475Z,21.27
2023-01-05T19:42:56.201Z,13.40
2023-01-05T19:45:22.759Z,16.30
2023-01-05T19:47:49.395Z,24.57
2023-01-05T19:50:16.120Z,20.77
2023-01-05T19:52:43.067Z,16.83
2023-01-05T19:55:11.993Z,16.90
2023-01-05T19:57:38.811Z,14.50
2023-01-05T20:00:05.999Z,10.03
2023-01-05T20:02:38.375Z,16.97
2023-01-05T20:05:05.248Z,12.10
2023-01-05T20:07:31.748Z,10.50
2023-01-05T20:09:58.450Z,9.80
2023-01-05T20:12:24.992Z,16.10
2023-01-05T20:14:51.672Z,17.70
2023-01-05T20:17:18.496Z,17.27
2023-01-05T20:19:45.565Z,14.33
2023-01-05T20:22:15.096Z,14.20
2023-01-05T20:24:42.473Z,13.93
2023-01-05T20:27:10.700Z,11.27
2023-01-05T20:29:37.514Z,12.50
2023-01-05T20:32:24.320Z,12.40
2023-01-05T20:34:52.367Z,11.53
2023-01-05T20:37:19.216Z,13.90
2023-01-05T20:39:45.818Z,11.17
2023-01-05T20:42:13.992Z,9.50
2023-01-05T20:44:41.833Z,16.37
2023-01-05T20:47:09.344Z,11.10
2023-01-05T20:49:36.878Z,14.43
2023-01-05T20:52:04.639Z,14.03
2023-01-05T20:54:31.296Z,16.53
2023-01-05T20:56:59.074Z,11.30
2023-01-05T20:59:32.873Z,10.30
2023-01-05T21:01:59.757Z,12.67
2023-01-05T21:04:26.955Z,16.10
2023-01-05T21:06:59.329Z,11.70
2023-01-05T21:09:29.171Z,8.43
2023-01-05T21:11:56.120Z,12.73
2023-01-05T21:14:22.653Z,11.70
2023-01-05T21:16:50.408Z,15.20
2023-01-05T21:19:18.615Z,16.17
2023-01-05T21:21:45.979Z,12.97
2023-01-05T21:24:15.461Z,11.23
2023-01-05T21:26:42.486Z,12.60
2023-01-05T21:29:10.864Z,13.77
2023-01-05T21:31:37.957Z,11.90
2023-01-05T21:34:04.896Z,10.13
2023-01-05T21:36:32.335Z,16.90
2023-01-05T21:39:03.570Z,8.80
2023-01-05T21:41:52.356Z,11.13
2023-01-05T21:44:19.888Z,9.30
2023-01-05T21:46:47.524Z,11.97
2023-01-05T21:49:14.588Z,9.33
2023-01-05T21:51:59.982Z,9.73
2023-01-05T21:55:02.137Z,9.50
2023-01-05T21:57:28.784Z,10.60
2023-01-05T21:59:55.383Z,13.13
2023-01-05T22:02:21.920Z,13.87
2023-01-05T22:04:48.656Z,8.67
2023-01-05T22:07:15.224Z,7.57
2023-01-05T22:09:41.706Z,5.83
2023-01-05T22:12:09.078Z,6.77
2023-01-05T22:14:36.426Z,5.77
2023-01-05T22:17:03.180Z,7.47
2023-01-05T22:19:29.641Z,5.47
2023-01-05T22:21:56.205Z,5.63
2023-01-05T22:24:22.928Z,17.13
2023-01-05T22:26:49.521Z,7.80
2023-01-05T22:29:16.867Z,11.10
2023-01-05T22:31:44.246Z,10.87
2023-01-05T22:34:10.745Z,8.53
2023-01-05T22:36:37.344Z,6.43
2023-01-05T22:39:04.017Z,7.33
2023-01-05T22:41:31.105Z,5.60
2023-01-05T22:43:58.031Z,10.97
2023-01-05T22:46:25.954Z,4.63
2023-01-05T22:48:53.340Z,9.03
2023-01-05T22:51:21.064Z,11.27
2023-01-05T22:53:48.223Z,5.10
2023-01-05T22:56:15.648Z,17.03
2023-01-05T22:58:42.316Z,15.73
2023-01-05T23:01:28.942Z,9.50
2023-01-05T23:03:56.546Z,8.70
2023-01-05T23:06:23.555Z,6.13
2023-01-05T23:08:51.092Z,7.37
2023-01-05T23:11:22.498Z,3.33
2023-01-05T23:13:49.626Z,9.40
2023-01-05T23:16:16.319Z,7.57
2023-01-05T23:18:43.492Z,7.00
2023-01-05T23:21:11.288Z,7.27
2023-01-05T23:23:38.393Z,3.10
2023-01-05T23:26:06.302Z,12.30
2023-01-05T23:28:33.235Z,7.27
2023-01-05T23:31:00.394Z,6.40
2023-01-05T23:33:28.807Z,7.33
2023-01-05T23:35:55.809Z,8.63
2023-01-05T23:38:23.017Z,7.70
2023-01-05T23:40:50.531Z,4.77
2023-01-05T23:43:19.331Z,13.27
2023-01-05T23:45:46.126Z,7.30
2023-01-05T23:48:13.168Z,3.57
2023-01-05T23:50:47.095Z,4.13
2023-01-05T23:53:13.960Z,2.47
2023-01-05T23:55:40.935Z,1.50
2023-01-05T23:58:08.179Z,4.20
